createdAt,value
2019-01-18T00:04:00.294Z,97344.00
2019-01-18T00:08:01.127Z,97362.00
2019-01-18T00:12:21.933Z,97359.00
2019-01-18T00:16:23.171Z,97360.00
2019-01-18T00:20:44.023Z,97370.00
2019-01-18T00:25:05.976Z,97371.00
2019-01-18T00:29:29.662Z,97369.00
2019-01-18T00:33:49.337Z,97378.00
2019-01-18T00:38:10.078Z,97386.00
2019-01-18T00:42:30.923Z,97381.00
2019-01-18T00:46:51.653Z,97401.00
2019-01-18T00:51:12.398Z,97404.00
2019-01-18T00:55:13.467Z,97402.00
2019-01-18T00:59:14.366Z,97409.00
2019-01-18T01:03:15.325Z,97412.00
2019-01-18T01:07:16.303Z,97429.00
2019-01-18T01:11:58.836Z,97427.00
2019-01-18T01:16:19.573Z,97436.00
2019-01-18T01:20:40.416Z,97428.00
2019-01-18T01:25:01.253Z,97457.00
2019-01-18T01:29:21.988Z,97445.00
2019-01-18T01:33:42.734Z,97444.00
2019-01-18T01:38:03.698Z,97455.00
2019-01-18T01:42:24.396Z,97459.00
2019-01-18T01:46:45.246Z,97469.00
2019-01-18T01:51:06.091Z,97471.00
2019-01-18T01:55:20.066Z,97473.00
2019-01-18T01:59:34.358Z,97494.00
2019-01-18T02:03:35.221Z,97491.00
2019-01-18T02:07:56.056Z,97495.00
2019-01-18T02:12:16.802Z,97497.00
2019-01-18T02:16:17.792Z,97516.00
2019-01-18T02:20:38.628Z,97512.00
2019-01-18T02:24:39.619Z,97526.00
2019-01-18T02:29:00.332Z,97532.00
2019-01-18T02:33:21.176Z,97539.00
2019-01-18T02:37:42.017Z,97537.00
2019-01-18T02:41:56.457Z,97543.00
2019-01-18T02:45:57.336Z,97543.00
2019-01-18T02:50:18.187Z,97551.00
2019-01-18T02:54:39.021Z,97561.00
2019-01-18T02:58:59.749Z,97578.00
2019-01-18T03:03:20.475Z,97584.00
2019-01-18T03:07:41.211Z,97591.00
2019-01-18T03:12:01.952Z,97593.00
2019-01-18T03:16:22.724Z,97597.00
2019-01-18T03:20:23.752Z,97593.00
2019-01-18T03:24:44.562Z,97593.00
2019-01-18T03:29:05.310Z,97606.00
2019-01-18T03:33:26.157Z,97608.00
2019-01-18T03:37:47.075Z,97605.00
2019-01-18T03:42:01.505Z,97612.00
2019-01-18T03:46:02.905Z,97623.00
2019-01-18T03:50:24.045Z,97622.00
2019-01-18T03:54:38.466Z,97635.00
2019-01-18T03:58:53.035Z,97649.00
2019-01-18T04:03:06.990Z,97669.00
2019-01-18T04:07:07.871Z,97675.00
2019-01-18T04:11:28.614Z,97684.00
2019-01-18T04:15:49.427Z,97686.00
2019-01-18T04:20:11.479Z,97697.00
2019-01-18T04:24:12.334Z,97711.00
2019-01-18T04:28:33.186Z,97716.00
2019-01-18T04:32:53.926Z,97718.00
2019-01-18T04:37:14.668Z,97709.00
2019-01-18T04:41:35.399Z,97728.00
2019-01-18T04:45:36.315Z,97729.00
2019-01-18T04:49:37.217Z,97732.00
2019-01-18T04:53:57.971Z,97733.00
2019-01-18T04:58:18.721Z,97739.00
2019-01-18T05:02:39.581Z,97751.00
2019-01-18T05:07:00.429Z,97757.00
2019-01-18T05:11:21.140Z,97767.00
2019-01-18T05:15:41.959Z,97775.00
2019-01-18T05:20:04.025Z,97775.00
2019-01-18T05:24:24.774Z,97778.00
2019-01-18T05:28:46.609Z,97779.00
2019-01-18T05:33:08.207Z,97791.00
2019-01-18T05:37:09.068Z,97803.00
2019-01-18T05:41:09.954Z,97814.00
2019-01-18T05:45:30.702Z,97823.00
2019-01-18T05:49:51.440Z,97821.00
2019-01-18T05:53:52.344Z,97821.00
2019-01-18T05:58:06.418Z,97826.00
2019-01-18T06:02:21.327Z,97830.00
2019-01-18T06:06:35.766Z,97837.00
2019-01-18T06:10:50.193Z,97844.00
2019-01-18T06:15:04.144Z,97846.00
2019-01-18T06:19:18.771Z,97848.00
2019-01-18T06:23:33.551Z,97849.00
2019-01-18T06:27:50.584Z,97857.00
2019-01-18T06:32:05.005Z,97865.00
2019-01-18T06:36:19.408Z,97865.00
2019-01-18T06:40:33.184Z,97873.00
2019-01-18T06:44:47.069Z,97883.00
2019-01-18T06:49:02.106Z,97885.00
2019-01-18T06:53:16.255Z,97892.00
2019-01-18T06:57:30.848Z,97896.00
2019-01-18T07:01:45.319Z,97890.00
2019-01-18T07:05:59.735Z,97892.00
2019-01-18T07:10:20.457Z,97906.00
2019-01-18T07:14:30.491Z,97893.00
2019-01-18T07:18:44.957Z,97904.00
2019-01-18T07:22:59.682Z,97914.00
2019-01-18T07:27:14.438Z,97928.00
2019-01-18T07:31:28.859Z,97937.00
2019-01-18T07:35:43.367Z,97951.00
2019-01-18T07:39:58.014Z,97959.00
2019-01-18T07:44:12.450Z,97969.00
2019-01-18T07:48:27.133Z,97971.00
2019-01-18T07:52:41.587Z,97969.00
2019-01-18T07:56:55.447Z,97980.00
2019-01-18T08:01:10.223Z,97990.00
2019-01-18T08:05:24.186Z,97990.00
2019-01-18T08:09:38.639Z,98006.00
2019-01-18T08:13:53.360Z,98012.00
2019-01-18T08:18:07.950Z,98004.00
2019-01-18T08:22:22.224Z,98017.00
2019-01-18T08:26:23.108Z,98030.00
2019-01-18T08:30:43.991Z,98038.00
2019-01-18T08:35:05.709Z,98041.00
2019-01-18T08:39:26.433Z,98050.00
2019-01-18T08:43:47.188Z,98048.00
2019-01-18T08:48:08.046Z,98061.00
2019-01-18T08:52:28.796Z,98057.00
2019-01-18T08:56:42.844Z,98060.00
2019-01-18T09:00:56.784Z,98064.00
2019-01-18T09:05:11.202Z,98069.00
2019-01-18T09:09:25.655Z,98065.00
2019-01-18T09:13:40.292Z,98074.00
2019-01-18T09:17:41.199Z,98077.00
2019-01-18T09:22:01.963Z,98095.00
2019-01-18T09:26:22.831Z,98094.00
2019-01-18T09:30:43.684Z,98107.00
2019-01-18T09:35:26.279Z,98110.00
2019-01-18T09:39:47.103Z,98113.00
2019-01-18T09:44:07.864Z,98115.00
2019-01-18T09:48:08.939Z,98121.00
2019-01-18T09:52:29.718Z,98119.00
2019-01-18T09:56:43.491Z,98125.00
2019-01-18T10:00:58.106Z,98135.00
2019-01-18T10:05:12.083Z,98138.00
2019-01-18T10:09:25.903Z,98132.00
2019-01-18T10:13:40.512Z,98132.00
2019-01-18T10:18:00.630Z,98138.00
2019-01-18T10:22:11.809Z,98140.00
2019-01-18T10:26:26.397Z,98130.00
2019-01-18T10:30:40.950Z,98142.00
2019-01-18T10:34:55.383Z,98132.00
2019-01-18T10:38:56.303Z,98136.00
2019-01-18T10:43:17.068Z,98137.00
2019-01-18T10:47:38.021Z,98127.00
2019-01-18T10:51:58.864Z,98137.00
2019-01-18T10:56:12.833Z,98138.00
2019-01-18T11:00:27.597Z,98138.00
2019-01-18T11:04:42.195Z,98142.00
2019-01-18T11:08:56.909Z,98146.00
2019-01-18T11:13:11.634Z,98145.00
2019-01-18T11:17:25.892Z,98147.00
2019-01-18T11:21:40.951Z,98151.00
2019-01-18T11:25:55.665Z,98153.00
2019-01-18T11:29:56.667Z,98151.00
2019-01-18T11:34:17.431Z,98150.00
2019-01-18T11:38:38.316Z,98143.00
2019-01-18T11:42:59.237Z,98156.00
2019-01-18T11:47:20.071Z,98152.00
2019-01-18T11:51:40.843Z,98147.00
2019-01-18T11:55:41.862Z,98146.00
2019-01-18T12:00:24.418Z,98142.00
2019-01-18T12:04:45.196Z,98142.00
2019-01-18T12:09:06.117Z,98138.00
2019-01-18T12:13:26.965Z,98143.00
2019-01-18T12:17:47.799Z,98141.00
2019-01-18T12:22:08.637Z,98134.00
2019-01-18T12:26:29.396Z,98132.00
2019-01-18T12:30:50.236Z,98140.00
2019-01-18T12:35:10.946Z,98131.00
2019-01-18T12:39:31.675Z,98125.00
2019-01-18T12:43:52.641Z,98132.00
2019-01-18T12:48:13.502Z,98117.00
2019-01-18T12:52:34.560Z,98112.00
2019-01-18T12:56:49.007Z,98123.00
2019-01-18T13:01:03.231Z,98121.00
2019-01-18T13:05:20.326Z,98123.00
2019-01-18T13:09:34.968Z,98122.00
2019-01-18T13:13:49.739Z,98115.00
2019-01-18T13:18:04.479Z,98113.00
2019-01-18T13:22:19.003Z,98111.00
2019-01-18T13:26:32.841Z,98119.00
2019-01-18T13:30:33.848Z,98113.00
2019-01-18T13:34:55.503Z,98117.00
2019-01-18T13:39:16.240Z,98117.00
2019-01-18T13:43:37.160Z,98116.00
2019-01-18T13:47:57.997Z,98116.00
2019-01-18T13:52:18.916Z,98111.00
2019-01-18T13:56:32.951Z,98108.00
2019-01-18T14:00:47.431Z,98104.00
2019-01-18T14:05:01.988Z,98111.00
2019-01-18T14:09:16.157Z,98106.00
2019-01-18T14:13:17.240Z,98109.00
2019-01-18T14:17:38.244Z,98113.00
2019-01-18T14:21:39.226Z,98122.00
2019-01-18T14:26:00.075Z,98114.00
2019-01-18T14:30:21.903Z,98112.00
2019-01-18T14:34:42.710Z,98116.00
2019-01-18T14:39:25.287Z,98118.00
2019-01-18T14:43:46.226Z,98122.00
2019-01-18T14:48:06.965Z,98132.00
2019-01-18T14:52:27.715Z,98132.00
2019-01-18T14:56:41.831Z,98141.00
2019-01-18T15:00:56.368Z,98141.00
2019-01-18T15:04:57.369Z,98145.00
2019-01-18T15:09:18.226Z,98147.00
2019-01-18T15:13:19.315Z,98018.00
2019-01-18T15:17:40.205Z,98146.00
2019-01-18T15:21:41.621Z,98140.00
2019-01-18T15:26:02.565Z,98143.00
2019-01-18T15:30:45.085Z,98142.00
2019-01-18T15:35:27.586Z,98138.00
2019-01-18T15:39:48.439Z,98129.00
2019-01-18T15:44:09.190Z,98145.00
2019-01-18T15:48:10.074Z,98148.00
2019-01-18T15:52:30.904Z,98148.00
2019-01-18T15:56:45.429Z,98147.00
2019-01-18T16:01:00.034Z,98147.00
2019-01-18T16:05:14.609Z,98147.00
2019-01-18T16:09:29.025Z,98157.00
2019-01-18T16:13:44.146Z,98147.00
2019-01-18T16:17:53.044Z,98141.00
2019-01-18T16:22:13.985Z,98152.00
2019-01-18T16:26:14.873Z,98158.00
2019-01-18T16:30:35.654Z,98153.00
2019-01-18T16:34:56.580Z,98147.00
2019-01-18T16:38:57.455Z,98152.00
2019-01-18T16:43:12.244Z,98149.00
2019-01-18T16:47:26.925Z,98154.00
2019-01-18T16:51:41.473Z,98153.00
2019-01-18T16:55:56.044Z,98149.00
2019-01-18T17:00:10.597Z,98149.00
2019-01-18T17:04:25.025Z,98146.00
2019-01-18T17:08:39.740Z,98150.00
2019-01-18T17:12:54.255Z,98155.00
2019-01-18T17:17:08.824Z,98150.00
2019-01-18T17:21:09.825Z,98146.00
2019-01-18T17:25:30.739Z,98156.00
2019-01-18T17:29:32.764Z,98149.00
2019-01-18T17:33:53.622Z,98151.00
2019-01-18T17:38:36.144Z,98146.00
2019-01-18T17:42:58.822Z,98148.00
2019-01-18T17:47:39.487Z,98144.00
2019-01-18T17:52:21.998Z,98143.00
2019-01-18T17:56:36.028Z,98151.00
2019-01-18T18:01:16.714Z,98157.00
2019-01-18T18:05:39.439Z,98152.00
2019-01-18T18:10:20.155Z,98145.00
2019-01-18T18:15:00.973Z,98144.00
2019-01-18T18:19:41.589Z,98151.00
2019-01-18T18:24:25.109Z,98143.00
2019-01-18T18:29:05.699Z,98144.00
2019-01-18T18:33:50.527Z,98147.00
2019-01-18T18:43:13.765Z,98134.00
2019-01-18T18:47:54.674Z,98134.00
2019-01-18T18:52:37.192Z,98132.00
2019-01-18T18:56:52.108Z,98128.00
2019-01-18T19:01:35.243Z,98127.00
2019-01-18T19:06:15.927Z,98130.00
2019-01-18T19:10:58.473Z,98125.00
2019-01-18T19:15:39.117Z,98122.00
2019-01-18T19:20:21.643Z,98127.00
2019-01-18T19:25:04.282Z,98127.00
2019-01-18T19:29:46.793Z,98122.00
2019-01-18T19:34:10.864Z,98128.00
2019-01-18T19:38:53.484Z,98116.00
2019-01-18T19:43:34.181Z,98118.00
2019-01-18T19:48:16.755Z,98118.00
2019-01-18T19:52:57.452Z,98105.00
2019-01-18T19:57:11.689Z,98106.00
2019-01-18T20:01:34.357Z,98115.00
2019-01-18T20:06:15.052Z,98112.00
2019-01-18T20:11:00.489Z,98104.00
2019-01-18T20:15:43.049Z,98113.00
2019-01-18T20:20:23.854Z,98110.00
2019-01-18T20:25:06.414Z,98103.00
2019-01-18T20:29:47.427Z,98102.00
2019-01-18T20:34:44.262Z,97922.00
2019-01-18T20:39:14.813Z,98099.00
2019-01-18T20:43:55.440Z,98091.00
2019-01-18T20:48:37.131Z,98103.00
2019-01-18T20:52:59.939Z,98104.00
2019-01-18T20:57:22.763Z,98100.00
2019-01-18T21:01:46.291Z,98103.00
2019-01-18T21:06:29.141Z,98103.00
2019-01-18T21:11:11.676Z,98103.00
2019-01-18T21:15:34.313Z,98097.00
2019-01-18T21:20:14.982Z,98092.00
2019-01-18T21:24:57.748Z,98096.00
2019-01-18T21:29:38.499Z,98104.00
2019-01-18T21:34:01.247Z,98096.00
2019-01-18T21:38:43.831Z,98093.00
2019-01-18T21:43:30.355Z,98084.00
2019-01-18T21:48:12.916Z,98096.00
2019-01-18T21:52:55.432Z,98100.00
2019-01-18T21:57:23.837Z,98099.00
2019-01-18T22:01:49.975Z,98098.00
2019-01-18T22:06:12.839Z,98102.00
2019-01-18T22:10:55.520Z,98093.00
2019-01-18T22:15:18.318Z,98088.00
2019-01-18T22:20:01.363Z,98095.00
2019-01-18T22:24:44.056Z,98093.00
2019-01-18T22:29:06.795Z,98084.00
2019-01-18T22:33:49.599Z,98091.00
2019-01-18T22:38:32.528Z,98092.00
2019-01-18T22:43:13.904Z,98091.00
2019-01-18T22:47:38.965Z,98091.00
2019-01-18T22:52:20.324Z,98086.00
2019-01-18T22:56:37.375Z,98087.00
2019-01-18T23:05:50.891Z,98085.00
2019-01-18T23:10:14.329Z,98087.00
2019-01-18T23:14:55.385Z,98082.00
2019-01-18T23:19:37.022Z,98077.00
2019-01-18T23:24:20.832Z,98086.00
2019-01-18T23:33:32.029Z,98074.00
2019-01-18T23:38:12.685Z,98080.00
2019-01-18T23:42:55.270Z,98086.00
2019-01-18T23:47:36.151Z,98089.00
2019-01-18T23:52:18.676Z,98081.00
2019-01-18T23:56:33.219Z,98085.00
